»·PEaware :: DAL213 KSFO-KRNO

DAL213 :: KSFO-KRNO

FLIGHT INFORMATION

Flight Status: Arrived
Operator:
Delta Air Lines
More flights by this operator :: More flights under this callsign
Pilot: Nicolas L. (9332)
Aircraft: BOEING 737-800
(B738)
More flights by this aircraft type
Origin: KSFO San Francisco Intl
United States
Destination: KRNO Reno/Tahoe Intl
United States
More flights between these airports :: More routes between these airports
Route: +TRUKN2 ORRCA TARVR SPOON
File this flight plan on PilotEdge
Remarks: Live Streaming on Twitch "DAL213" and YT
Altitude:
(Current/Filed)
23,000ft
Speed:
(Current/Filed)
400kts
Departed: 01-Oct-18 06:33 PM
Arrived: 01-Oct-18 07:05 PM
Distance/Time
Traveled:
166nm/0:32
Distance/Time
To Go:
Arrived

Flight Plot

Page will automatically refresh every two minutes.

Flight plan parsing failed; only flown route is shown


Map Options




Map Legend


Flown Route
Filed Route
Departure Airport
Arrival Airport
Navaid (VOR, NDB)
Fix

Horizontal Profiles

Position Reports

Time Latitude Longitude Heading Altitude Ground
Speed
01-Oct-18 18:17 37.615578 -122.382655 224 22ft 0kts
01-Oct-18 18:18 37.615578 -122.382655 224 22ft 0kts
01-Oct-18 18:19 37.615578 -122.382655 224 22ft 0kts
01-Oct-18 18:20 37.615578 -122.382655 224 22ft 0kts
01-Oct-18 18:21 37.615578 -122.382655 224 22ft 0kts
01-Oct-18 18:22 37.615578 -122.382655 224 22ft 0kts
01-Oct-18 18:23 37.615578 -122.382655 224 22ft 0kts
01-Oct-18 18:24 37.615578 -122.382655 224 22ft 0kts
01-Oct-18 18:25 37.615578 -122.382655 224 22ft 0kts
01-Oct-18 18:26 37.615578 -122.382655 224 22ft 0kts
01-Oct-18 18:27 37.615581 -122.382651 224 22ft 0kts
01-Oct-18 18:28 37.616200 -122.382357 171 22ft 0kts
01-Oct-18 18:29 37.616200 -122.382357 171 22ft 0kts
01-Oct-18 18:30 37.616200 -122.382357 171 22ft 0kts
01-Oct-18 18:31 37.616200 -122.382356 171 22ft 0kts
01-Oct-18 18:32 37.615628 -122.380923 122 22ft 13kts
01-Oct-18 18:33 37.611691 -122.382942 206 22ft 17kts
01-Oct-18 18:34 37.608526 -122.383909 116 22ft 0kts
01-Oct-18 18:35 37.615226 -122.378055 27 22ft 118kts
01-Oct-18 18:36 37.648451 -122.343074 52 2148ft 173kts
01-Oct-18 18:37 37.681793 -122.282878 55 3978ft 243kts
01-Oct-18 18:38 37.726614 -122.207762 40 6885ft 283kts
01-Oct-18 18:39 37.792535 -122.146894 38 9972ft 304kts
01-Oct-18 18:40 37.867825 -122.078755 37 11950ft 357kts
01-Oct-18 18:41 37.951376 -122.002921 36 14603ft 381kts
01-Oct-18 18:42 38.040303 -121.921968 36 17271ft 406kts
01-Oct-18 18:43 38.135012 -121.835500 36 19815ft 429kts
01-Oct-18 18:44 38.234097 -121.744687 36 22253ft 449kts
01-Oct-18 18:45 38.338876 -121.648320 36 22871ft 476kts
01-Oct-18 18:46 38.437328 -121.537593 61 22871ft 469kts
01-Oct-18 18:47 38.479668 -121.383509 78 22876ft 460kts
01-Oct-18 18:48 38.513995 -121.225873 79 22864ft 459kts
01-Oct-18 18:49 38.547547 -121.068662 79 22879ft 459kts
01-Oct-18 18:50 38.580876 -120.911423 79 22921ft 458kts
01-Oct-18 18:51 38.614058 -120.753726 79 22959ft 459kts
01-Oct-18 18:52 38.647001 -120.596019 79 22977ft 459kts
01-Oct-18 18:53 38.679848 -120.437614 79 22987ft 460kts
01-Oct-18 18:54 38.712399 -120.279460 79 23016ft 460kts
01-Oct-18 18:55 38.744248 -120.123632 79 21138ft 447kts
01-Oct-18 18:56 38.775012 -119.971917 79 18964ft 431kts
01-Oct-18 18:57 38.813727 -119.830585 54 18322ft 426kts
01-Oct-18 18:58 38.911167 -119.772297 0 17138ft 371kts
01-Oct-18 18:59 39.010285 -119.770586 358 14558ft 339kts
01-Oct-18 19:00 39.099819 -119.770324 359 12221ft 312kts
01-Oct-18 19:01 39.186040 -119.770100 359 10823ft 304kts
01-Oct-18 19:02 39.269296 -119.770185 358 9279ft 284kts
01-Oct-18 19:03 39.339957 -119.769627 359 7765ft 224kts
01-Oct-18 19:04 39.394905 -119.769522 358 6519ft 171kts
01-Oct-18 19:05 39.439943 -119.769393 356 5526ft 151kts
01-Oct-18 19:06 39.478370 -119.769286 1 4595ft 136kts
01-Oct-18 19:07 39.500213 -119.769226 1 4424ft 16kts
01-Oct-18 19:08 39.503981 -119.771829 333 4424ft 7kts
01-Oct-18 19:09 39.504518 -119.772390 318 4424ft 0kts

Navigation Log

Ident Type
Flight plan parsing failed, navigation log unavailable